CYEK

Arviat Airport

Arviat, Canada
METAR CYEK 181600Z 08012KT 10SM -SN SCT013 OVC031 M14/M16 A2927 RMK ST3SC5 SLP915
Observed Flight Rules
Dec-18 @ 16:00 UTC (36 minutes ago) Visual Flight Rules
Wind Visibility Clouds Conditions
80° at 12 knots 10 miles
  • Scattered at 1,300' AGL
  • Overcast at 3,100' AGL
  • Light Snow
Temperatures Readings
Current -14°C / 7°F
Dewpoint -16°C / 3°F
Humidity 85%
Altimeter 29.27" Hg
Pressure 991.5 hPa
Elevation 10
METAR CYEK 181600Z 08012KT 10SM -SN SCT013 OVC031 M14/M16 A2927 RMK ST3SC5 SLP915
Observed Flight Rules
Dec-18 @ 16:00 UTC
(36 minutes ago)
VFR
Wind Visibility
80° at 12 knots 10 miles
Clouds
  • Scattered at 1,300' AGL
  • Overcast at 3,100' AGL
Conditions
  • Light Snow
Temperature Dewpoint
-14°C / 7°F -16°C / 3°F
Humidity Altimeter Pressure
85% 29.27" Hg 991.5 hPa